Terminal Aerodrome Forecast
Issued by NWS

Home | Current Version | Previous Version | Text Only | Print | Product List | Glossary On
Versions: 1 2 3 4 5 6 7 8 9 10 11 12 13 14 15 16 17 18 19 20 21 22 23 24 25 26 27 28 29 30 31 32 33 34 35 36 37 38 39
000
FTUS45 KBOU 300238 AAA
TAFAPA
TAF AMD
KAPA 300238Z 3003/3024 17009KT P6SM FEW110 BKN200
     FM300700 20007KT P6SM FEW080 SCT100 BKN200
     FM301300 VRB05KT P6SM SCT070 BKN100 BKN120
     FM301600 24007KT P6SM SCT070 BKN090 BKN110
     FM302000 01006KT P6SM SCT060 BKN080 OVC100
      TEMPO 3022/3024 SCT045 BKN060=

USA.gov is the U.S. government's official web portal to all federal, state and local government web resources and services.